الصفحة الرئيسية
METAR-TAF:

METAR-TAF

مطار :

بولا, كرواتيا

دائرة عرض: 44-54N, خط طول: 013-55E, ارتفاع: 63 متر

مراقبة الطقس الحالي

تاريخ ووقت الإصدار 26 دقيقة قبل الساعة 11:30UTC
ريح 4 عقدةمن اتجاهات متغيرة
درجة الحرارة 9°درجة مئوية
الرطوبة 40%
ضغط 1014 hPa
الرؤية 10 كم أو أكثر
الغيوم لا تقل 1500 م ولا وجود لمزنة ركامية السحاب الأسود

METAR: LDPL 261130Z VRB04KT CAVOK 09/M04 Q1014 NOSIG

زمن: 12:56 (11:56 UTC)

توقعات

تاريخ ووقت الإصدار 31 دقيقة قبل الساعة 11:25UTC
التوقعات صالحة من26 الساعة 12 UTC إلى 27 الساعة 12 UTC
ريح 2 عقدةمن اتجاهات متغيرة
الرؤية 10 كم أو أكثر
الغيوم لا تقل 1500 م ولا وجود لمزنة ركامية السحاب الأسود

TAF: LDPL 261125Z 2612/2712 VRB02KT CAVOK TX09/2612Z TNM03/2704Z

أرصاد الطقس والتوقعات من أكثر من 4000 مطار (تقارير الطقس للمطار METAR والتنبؤ بالطقس بالمطارTAF).

المحطات المتاحة هي النقط الصفراء والحمراء على الخريطة.

حرك المؤشر فوق النقطة لمعرفة اسم المحطة.

ثم انقر لمعرفة أرصاد وتوقعات الطقس.

لتغيير الخارطة: اضغط على الأزرار الخضراء مع رمز الصليب الأسود للتكبير. على الزر الأخضر مع شرطة للتصغير، أو على الأسهم الخضراء للخرائط المجاورة.


METAR-TAF: